createdAt,value
2024-02-13T00:02:03.711Z,92.87
2024-02-13T00:04:33.573Z,92.31
2024-02-13T00:07:02.374Z,93.06
2024-02-13T00:09:33.149Z,92.71
2024-02-13T00:12:02.630Z,93.31
2024-02-13T00:14:32.084Z,93.31
2024-02-13T00:17:01.761Z,93.49
2024-02-13T00:19:32.469Z,93.31
2024-02-13T00:22:02.240Z,93.81
2024-02-13T00:24:35.192Z,93.80
2024-02-13T00:27:04.906Z,94.39
2024-02-13T00:29:33.820Z,94.32
2024-02-13T00:32:03.568Z,95.07
2024-02-13T00:34:53.996Z,95.38
2024-02-13T00:37:24.976Z,95.19
2024-02-13T00:39:55.855Z,95.42
2024-02-13T00:42:26.126Z,94.74
2024-02-13T00:44:56.161Z,95.54
2024-02-13T00:47:27.442Z,95.04
2024-02-13T00:49:56.959Z,95.24
2024-02-13T00:52:26.587Z,95.37
2024-02-13T00:54:58.508Z,95.52
2024-02-13T00:57:30.469Z,95.28
2024-02-13T00:59:59.376Z,95.57
2024-02-13T01:02:29.218Z,96.05
2024-02-13T01:04:59.463Z,95.78
2024-02-13T01:07:29.528Z,95.31
2024-02-13T01:10:00.887Z,95.42
2024-02-13T01:12:31.009Z,95.28
2024-02-13T01:15:00.561Z,96.04
2024-02-13T01:17:30.575Z,95.40
2024-02-13T01:20:00.361Z,95.50
2024-02-13T01:22:30.563Z,94.78
2024-02-13T01:25:02.252Z,95.27
2024-02-13T01:27:33.285Z,94.92
2024-02-13T01:30:02.744Z,95.08
2024-02-13T01:32:35.057Z,95.08
2024-02-13T01:35:04.990Z,94.69
2024-02-13T01:37:35.261Z,94.35
2024-02-13T01:40:07.277Z,94.42
2024-02-13T01:42:39.852Z,94.15
2024-02-13T01:45:11.340Z,94.25
2024-02-13T01:47:55.498Z,95.02
2024-02-13T01:50:25.563Z,94.32
2024-02-13T01:52:55.187Z,93.78
2024-02-13T01:55:26.780Z,94.12
2024-02-13T01:58:00.878Z,94.11
2024-02-13T02:00:30.600Z,93.92
2024-02-13T02:03:01.225Z,94.08
2024-02-13T02:05:30.750Z,94.73
2024-02-13T02:08:16.714Z,94.84
2024-02-13T02:10:47.424Z,94.66
2024-02-13T02:13:16.934Z,93.99
2024-02-13T02:15:58.618Z,94.92
2024-02-13T02:18:28.794Z,94.27
2024-02-13T02:20:58.307Z,94.59
2024-02-13T02:23:28.403Z,94.03
2024-02-13T02:26:09.427Z,93.59
2024-02-13T02:28:59.054Z,94.25
2024-02-13T02:31:28.265Z,94.36
2024-02-13T02:33:57.953Z,94.41
2024-02-13T02:36:27.246Z,94.13
2024-02-13T02:38:56.774Z,95.10
2024-02-13T02:41:27.177Z,95.01
2024-02-13T02:43:56.857Z,94.86
2024-02-13T02:46:25.751Z,94.36
2024-02-13T02:48:54.841Z,94.68
2024-02-13T02:51:24.384Z,94.69
2024-02-13T02:53:54.076Z,94.66
2024-02-13T02:56:24.137Z,94.94
2024-02-13T02:58:55.828Z,94.05
2024-02-13T03:01:26.031Z,93.82
2024-02-13T03:03:55.153Z,93.69
2024-02-13T03:06:24.080Z,93.46
2024-02-13T03:08:53.595Z,93.74
2024-02-13T03:11:22.900Z,93.39
2024-02-13T03:13:52.446Z,93.39
2024-02-13T03:16:23.892Z,93.17
2024-02-13T03:18:53.339Z,93.33
2024-02-13T03:21:25.729Z,92.95
2024-02-13T03:23:55.109Z,93.93
2024-02-13T03:26:25.377Z,93.78
2024-02-13T03:29:14.427Z,93.79
2024-02-13T03:31:46.068Z,94.63
2024-02-13T03:34:15.371Z,94.03
2024-02-13T03:36:44.827Z,94.57
2024-02-13T03:39:14.621Z,94.47
2024-02-13T03:41:44.459Z,94.75
2024-02-13T03:44:14.467Z,94.92
2024-02-13T03:46:46.095Z,94.99
2024-02-13T03:49:17.331Z,94.80
2024-02-13T03:51:47.004Z,94.06
2024-02-13T03:54:15.935Z,94.46
2024-02-13T03:56:47.280Z,94.39
2024-02-13T03:59:17.247Z,94.34
2024-02-13T04:01:47.651Z,94.86
2024-02-13T04:04:16.557Z,95.09
2024-02-13T04:06:46.959Z,95.23
2024-02-13T04:09:17.804Z,95.62
2024-02-13T04:11:47.748Z,95.60
2024-02-13T04:14:18.128Z,94.89
2024-02-13T04:16:50.075Z,94.83
2024-02-13T04:19:20.257Z,94.75
2024-02-13T04:21:49.654Z,95.33
2024-02-13T04:24:19.462Z,94.23
2024-02-13T04:26:48.311Z,94.59
2024-02-13T04:29:17.755Z,94.30
2024-02-13T04:31:46.455Z,94.17
2024-02-13T04:34:17.007Z,94.17
2024-02-13T04:36:46.747Z,93.97
2024-02-13T04:39:16.743Z,94.47
2024-02-13T04:41:48.115Z,94.16
2024-02-13T04:44:17.738Z,94.59
2024-02-13T04:46:47.653Z,93.67
2024-02-13T04:49:20.331Z,93.88
2024-02-13T04:51:49.300Z,94.61
2024-02-13T04:54:18.936Z,95.41
2024-02-13T04:56:49.034Z,95.06
2024-02-13T04:59:19.872Z,95.10
2024-02-13T05:01:50.149Z,95.34
2024-02-13T05:04:38.710Z,95.02
2024-02-13T05:07:23.297Z,95.27
2024-02-13T05:09:54.872Z,95.35
2024-02-13T05:12:24.052Z,95.16
2024-02-13T05:14:54.731Z,95.61
2024-02-13T05:17:27.861Z,95.23
2024-02-13T05:19:59.757Z,94.99
2024-02-13T05:22:28.897Z,94.93
2024-02-13T05:24:58.038Z,94.98
2024-02-13T05:27:27.032Z,94.53
2024-02-13T05:29:57.103Z,94.81
2024-02-13T05:32:27.541Z,94.64
2024-02-13T05:34:57.691Z,93.74
2024-02-13T05:37:29.140Z,93.82
2024-02-13T05:39:58.126Z,94.39
2024-02-13T05:42:27.120Z,93.88
2024-02-13T05:44:56.624Z,93.85
2024-02-13T05:47:33.239Z,94.04
2024-02-13T05:50:03.691Z,93.83
2024-02-13T05:52:35.073Z,94.21
2024-02-13T05:55:04.559Z,94.11
2024-02-13T05:57:34.292Z,94.02
2024-02-13T06:00:04.353Z,94.43
2024-02-13T06:02:42.445Z,93.81
2024-02-13T06:05:12.608Z,93.80
2024-02-13T06:07:44.869Z,93.32
2024-02-13T06:10:13.732Z,92.51
2024-02-13T06:12:43.649Z,92.93
2024-02-13T06:15:13.664Z,92.68
2024-02-13T06:17:44.657Z,92.63
2024-02-13T06:20:15.048Z,92.37
2024-02-13T06:22:45.797Z,91.84
2024-02-13T06:25:16.892Z,92.22
2024-02-13T06:27:47.257Z,92.08
2024-02-13T06:30:17.360Z,91.90
2024-02-13T06:32:53.258Z,92.41
2024-02-13T06:35:22.966Z,92.46
2024-02-13T06:38:03.327Z,92.49
2024-02-13T06:40:32.607Z,93.36
2024-02-13T06:43:01.842Z,92.87
2024-02-13T06:45:31.449Z,92.68
2024-02-13T06:48:02.343Z,92.68
2024-02-13T06:50:31.265Z,92.41
2024-02-13T06:53:01.170Z,93.35
2024-02-13T06:55:33.716Z,93.21
2024-02-13T06:58:09.402Z,91.94
2024-02-13T07:00:39.805Z,92.90
2024-02-13T07:03:09.166Z,92.94
2024-02-13T07:05:39.772Z,93.21
2024-02-13T07:08:10.738Z,93.44
2024-02-13T07:10:41.165Z,94.07
2024-02-13T07:13:22.385Z,93.40
2024-02-13T07:15:53.421Z,93.79
2024-02-13T07:18:24.585Z,94.52
2024-02-13T07:20:55.961Z,94.23
2024-02-13T07:23:27.841Z,94.17
2024-02-13T07:25:58.641Z,94.23
2024-02-13T07:28:29.282Z,94.12
2024-02-13T07:30:58.608Z,94.22
2024-02-13T07:33:28.281Z,94.02
2024-02-13T07:35:58.538Z,94.20
2024-02-13T07:38:28.093Z,94.28
2024-02-13T07:41:02.366Z,93.12
2024-02-13T07:43:32.343Z,93.16
2024-02-13T07:46:02.692Z,92.78
2024-02-13T07:48:49.793Z,93.02
2024-02-13T07:51:19.902Z,92.35
2024-02-13T07:53:50.271Z,92.76
2024-02-13T07:56:26.777Z,92.82
2024-02-13T07:58:58.772Z,92.30
2024-02-13T08:01:29.296Z,92.32
2024-02-13T08:03:58.473Z,92.44
2024-02-13T08:06:30.808Z,91.85
2024-02-13T08:09:02.154Z,92.15
2024-02-13T08:11:33.503Z,92.18
2024-02-13T08:14:02.596Z,92.41
2024-02-13T08:16:36.765Z,92.58
2024-02-13T08:19:10.227Z,92.38
2024-02-13T08:21:40.786Z,92.69
2024-02-13T08:24:11.208Z,92.46
2024-02-13T08:26:42.762Z,92.32
2024-02-13T08:29:12.711Z,91.84
2024-02-13T08:31:42.459Z,91.46
2024-02-13T08:34:11.992Z,91.83
2024-02-13T08:36:41.642Z,92.17
2024-02-13T08:39:11.904Z,91.63
2024-02-13T08:41:46.601Z,91.12
2024-02-13T08:44:18.184Z,90.88
2024-02-13T08:46:47.960Z,90.91
2024-02-13T08:49:18.185Z,90.81
2024-02-13T08:51:48.300Z,90.17
2024-02-13T08:54:19.237Z,89.65
2024-02-13T08:56:52.363Z,89.38
2024-02-13T08:59:22.070Z,89.67
2024-02-13T09:01:51.786Z,88.81
2024-02-13T09:04:22.000Z,88.80
2024-02-13T09:07:10.758Z,88.50
2024-02-13T09:09:58.976Z,88.50
2024-02-13T09:12:29.823Z,87.98
2024-02-13T09:15:00.104Z,87.00
2024-02-13T09:17:29.627Z,88.04
2024-02-13T09:19:59.810Z,87.29
2024-02-13T09:22:29.597Z,87.36
2024-02-13T09:24:59.800Z,86.90
2024-02-13T09:27:31.148Z,86.18
2024-02-13T09:30:01.345Z,86.65
2024-02-13T09:32:31.723Z,86.56
2024-02-13T09:35:02.685Z,86.40
2024-02-13T09:37:36.492Z,85.49
2024-02-13T09:40:15.575Z,85.61
2024-02-13T09:42:47.353Z,85.52
2024-02-13T09:45:20.066Z,85.37
2024-02-13T09:47:51.130Z,84.91
2024-02-13T09:50:21.813Z,83.53
2024-02-13T09:52:56.255Z,84.08
2024-02-13T09:55:27.170Z,84.51
2024-02-13T09:57:57.977Z,82.83
2024-02-13T10:00:28.841Z,82.90
2024-02-13T10:02:59.848Z,82.57
2024-02-13T10:05:30.138Z,81.93
2024-02-13T10:07:59.413Z,81.72
2024-02-13T10:10:30.460Z,81.49
2024-02-13T10:13:02.586Z,81.90
2024-02-13T10:15:41.738Z,82.94
2024-02-13T10:18:14.452Z,80.53
2024-02-13T10:20:45.783Z,80.74
2024-02-13T10:23:20.299Z,81.03
2024-02-13T10:25:50.409Z,78.64
2024-02-13T10:28:21.046Z,79.43
2024-02-13T10:30:53.271Z,79.73
2024-02-13T10:33:23.191Z,78.77
2024-02-13T10:35:58.024Z,79.92
2024-02-13T10:38:30.778Z,78.32
2024-02-13T10:41:03.760Z,76.77
2024-02-13T10:43:34.961Z,76.96
2024-02-13T10:46:07.548Z,76.08
2024-02-13T10:48:44.043Z,76.16
2024-02-13T10:51:18.667Z,76.90
2024-02-13T10:53:50.324Z,76.97
2024-02-13T10:56:23.338Z,76.85
2024-02-13T10:58:55.061Z,75.55
2024-02-13T11:01:26.343Z,75.63
2024-02-13T11:03:59.318Z,73.97
2024-02-13T11:06:28.977Z,74.46
2024-02-13T11:08:58.622Z,74.43
2024-02-13T11:11:27.856Z,74.77
2024-02-13T11:13:59.938Z,73.90
2024-02-13T11:16:29.091Z,73.82
2024-02-13T11:19:18.887Z,75.90
2024-02-13T11:21:52.952Z,75.45
2024-02-13T11:24:50.595Z,76.06
2024-02-13T11:27:29.890Z,74.84
2024-02-13T11:30:04.789Z,75.70
2024-02-13T11:32:39.486Z,75.47
2024-02-13T11:35:12.685Z,74.59
2024-02-13T11:37:45.924Z,75.53
2024-02-13T11:40:16.731Z,75.57
2024-02-13T11:42:58.765Z,75.49
2024-02-13T11:45:30.953Z,75.78
2024-02-13T11:48:01.914Z,73.43
2024-02-13T11:50:34.149Z,72.54
2024-02-13T11:53:04.439Z,71.71
2024-02-13T11:55:33.935Z,72.35
2024-02-13T11:58:04.593Z,73.53
2024-02-13T12:00:35.636Z,73.12
2024-02-13T12:03:34.567Z,72.34
2024-02-13T12:06:08.562Z,74.12
2024-02-13T12:08:42.473Z,69.61
2024-02-13T12:11:12.182Z,70.31
2024-02-13T12:13:42.612Z,70.21
2024-02-13T12:16:14.586Z,71.89
2024-02-13T12:18:46.460Z,70.27
2024-02-13T12:21:18.147Z,69.18
2024-02-13T12:23:51.741Z,70.64
2024-02-13T12:26:21.617Z,70.36
2024-02-13T12:28:57.391Z,71.19
2024-02-13T12:31:31.159Z,70.84
2024-02-13T12:34:06.539Z,70.70
2024-02-13T12:36:37.283Z,70.52
2024-02-13T12:39:10.108Z,69.38
2024-02-13T12:41:40.281Z,69.87
2024-02-13T12:44:11.032Z,67.34
2024-02-13T12:46:44.635Z,67.99
2024-02-13T12:49:15.231Z,67.66
2024-02-13T12:51:45.883Z,66.83
2024-02-13T12:54:15.842Z,67.26
2024-02-13T12:56:47.476Z,67.32
2024-02-13T12:59:16.377Z,68.07
2024-02-13T13:01:46.992Z,67.59
2024-02-13T13:04:17.428Z,68.37
2024-02-13T13:06:48.485Z,67.25
2024-02-13T13:09:27.280Z,66.61
2024-02-13T13:11:58.045Z,64.84
2024-02-13T13:14:29.071Z,66.53
2024-02-13T13:17:00.493Z,64.83
2024-02-13T13:19:31.071Z,66.45
2024-02-13T13:22:00.253Z,66.45
2024-02-13T13:24:30.363Z,67.09
2024-02-13T13:26:59.422Z,67.79
2024-02-13T13:29:31.562Z,65.89
2024-02-13T13:32:03.714Z,67.13
2024-02-13T13:34:34.429Z,67.98
2024-02-13T13:37:04.118Z,66.31
2024-02-13T13:39:34.298Z,66.88
2024-02-13T13:42:10.571Z,65.26
2024-02-13T13:44:42.095Z,65.55
2024-02-13T13:47:12.552Z,66.08
2024-02-13T13:49:43.227Z,66.49
2024-02-13T13:52:13.149Z,66.44
2024-02-13T13:54:41.988Z,66.73
2024-02-13T13:57:10.978Z,65.43
2024-02-13T13:59:40.578Z,66.93
2024-02-13T14:02:09.963Z,67.36
2024-02-13T14:04:40.589Z,66.94
2024-02-13T14:07:10.572Z,66.32
2024-02-13T14:09:40.846Z,66.72
2024-02-13T14:12:10.862Z,66.62
2024-02-13T14:14:41.072Z,64.89
2024-02-13T14:17:10.183Z,65.42
2024-02-13T14:19:46.474Z,65.15
2024-02-13T14:22:18.632Z,65.18
2024-02-13T14:24:49.325Z,64.15
2024-02-13T14:27:20.271Z,63.46
2024-02-13T14:29:50.012Z,64.45
2024-02-13T14:32:19.939Z,62.79
2024-02-13T14:34:52.040Z,62.28
2024-02-13T14:37:23.022Z,63.55
2024-02-13T14:39:53.216Z,63.88
2024-02-13T14:42:23.877Z,63.64
2024-02-13T14:44:52.970Z,64.70
2024-02-13T14:47:23.720Z,63.53
2024-02-13T14:49:55.855Z,64.05
2024-02-13T14:52:25.586Z,63.91
2024-02-13T14:54:55.571Z,64.51
2024-02-13T14:57:24.800Z,63.75
2024-02-13T14:59:54.580Z,64.64
2024-02-13T15:02:25.431Z,64.20
2024-02-13T15:04:56.166Z,64.16
2024-02-13T15:07:25.315Z,62.99
2024-02-13T15:09:55.091Z,64.04
2024-02-13T15:12:25.605Z,62.94
2024-02-13T15:14:55.942Z,63.69
2024-02-13T15:17:25.679Z,62.61
2024-02-13T15:19:58.905Z,62.85
2024-02-13T15:22:32.183Z,63.55
2024-02-13T15:25:04.297Z,62.91
2024-02-13T15:27:35.304Z,63.17
2024-02-13T15:30:13.670Z,62.57
2024-02-13T15:33:00.600Z,63.12
2024-02-13T15:35:41.179Z,63.48
2024-02-13T15:38:28.438Z,62.64
2024-02-13T15:41:14.981Z,62.40
2024-02-13T15:44:06.849Z,63.53
2024-02-13T15:47:00.177Z,63.18
2024-02-13T15:49:29.680Z,63.15
2024-02-13T15:52:02.218Z,64.40
2024-02-13T15:54:32.524Z,64.19
2024-02-13T15:57:02.151Z,64.24
2024-02-13T15:59:32.790Z,63.66
2024-02-13T16:02:03.280Z,64.63
2024-02-13T16:04:34.336Z,64.18
2024-02-13T16:07:06.539Z,64.16
2024-02-13T16:09:37.174Z,65.04
2024-02-13T16:12:08.859Z,65.41
2024-02-13T16:14:37.939Z,65.92
2024-02-13T16:17:08.596Z,66.17
2024-02-13T16:19:38.089Z,66.45
2024-02-13T16:22:08.852Z,66.12
2024-02-13T16:24:39.509Z,66.15
2024-02-13T16:27:09.844Z,67.74
2024-02-13T16:29:41.145Z,67.89
2024-02-13T16:32:13.035Z,67.95
2024-02-13T16:34:45.044Z,69.02
2024-02-13T16:37:15.973Z,69.24
2024-02-13T16:39:44.720Z,69.14
2024-02-13T16:42:14.794Z,69.28
2024-02-13T16:44:45.005Z,69.40
2024-02-13T16:47:14.833Z,69.06
2024-02-13T16:49:43.958Z,69.75
2024-02-13T16:52:12.805Z,70.07
2024-02-13T16:54:44.216Z,69.57
2024-02-13T16:57:14.344Z,68.88
2024-02-13T16:59:44.967Z,69.19
2024-02-13T17:02:16.419Z,69.82
2024-02-13T17:04:46.280Z,70.51
2024-02-13T17:07:16.725Z,69.55
2024-02-13T17:09:47.767Z,70.11
2024-02-13T17:12:17.141Z,70.02
2024-02-13T17:14:47.638Z,69.92
2024-02-13T17:17:18.758Z,69.98
2024-02-13T17:19:49.535Z,70.46
2024-02-13T17:22:18.621Z,70.66
2024-02-13T17:24:49.700Z,70.49
2024-02-13T17:27:20.263Z,71.37
2024-02-13T17:29:49.291Z,71.41
2024-02-13T17:32:18.222Z,71.00
2024-02-13T17:34:47.373Z,71.55
2024-02-13T17:37:17.069Z,71.10
2024-02-13T17:39:46.621Z,71.27
2024-02-13T17:42:17.852Z,71.18
2024-02-13T17:44:47.046Z,70.86
2024-02-13T17:47:17.793Z,71.42
2024-02-13T17:49:46.965Z,72.14
2024-02-13T17:52:16.566Z,72.83
2024-02-13T17:54:45.810Z,72.60
2024-02-13T17:57:14.672Z,73.08
2024-02-13T17:59:45.620Z,73.03
2024-02-13T18:02:15.444Z,73.42
2024-02-13T18:04:45.395Z,73.28
2024-02-13T18:07:15.090Z,73.03
2024-02-13T18:09:44.508Z,73.93
2024-02-13T18:12:16.799Z,73.43
2024-02-13T18:14:47.207Z,73.91
2024-02-13T18:17:17.844Z,74.42
2024-02-13T18:19:48.532Z,74.47
2024-02-13T18:22:17.760Z,74.52
2024-02-13T18:24:47.412Z,74.86
2024-02-13T18:27:17.605Z,75.62
2024-02-13T18:29:51.252Z,75.60
2024-02-13T18:32:22.099Z,75.94
2024-02-13T18:34:51.470Z,76.06
2024-02-13T18:37:21.086Z,75.65
2024-02-13T18:39:51.567Z,76.13
2024-02-13T18:42:22.990Z,76.17
2024-02-13T18:44:55.021Z,76.45
2024-02-13T18:47:24.586Z,77.21
2024-02-13T18:49:55.176Z,76.42
2024-02-13T18:52:25.077Z,76.60
2024-02-13T18:54:56.997Z,77.05
2024-02-13T18:57:27.565Z,77.67
2024-02-13T18:59:58.542Z,77.57
2024-02-13T19:02:28.244Z,77.81
2024-02-13T19:04:58.788Z,77.85
2024-02-13T19:07:29.170Z,77.92
2024-02-13T19:09:59.259Z,78.11
2024-02-13T19:12:29.245Z,78.55
2024-02-13T19:15:01.074Z,78.72
2024-02-13T19:17:31.368Z,78.97
2024-02-13T19:20:00.913Z,79.20
2024-02-13T19:22:31.595Z,79.45
2024-02-13T19:25:02.131Z,78.95
2024-02-13T19:27:33.657Z,79.13
2024-02-13T19:30:04.537Z,79.59
2024-02-13T19:32:35.686Z,79.38
2024-02-13T19:35:06.234Z,79.37
2024-02-13T19:37:37.066Z,79.62
2024-02-13T19:40:08.009Z,80.43
2024-02-13T19:42:53.812Z,80.48
2024-02-13T19:45:24.759Z,80.69
2024-02-13T19:48:04.535Z,80.45
2024-02-13T19:50:54.257Z,81.49
2024-02-13T19:53:44.276Z,81.29
2024-02-13T19:56:34.532Z,81.04
2024-02-13T19:59:23.876Z,81.90
2024-02-13T20:02:20.465Z,82.57
2024-02-13T20:05:10.319Z,81.68
2024-02-13T20:07:59.662Z,82.26
2024-02-13T20:10:29.974Z,82.36
2024-02-13T20:12:59.886Z,82.30
2024-02-13T20:15:29.474Z,82.94
2024-02-13T20:18:01.484Z,82.89
2024-02-13T20:20:32.977Z,82.90
2024-02-13T20:23:02.336Z,82.89
2024-02-13T20:25:32.089Z,82.65
2024-02-13T20:28:01.500Z,82.86
2024-02-13T20:30:33.492Z,82.34
2024-02-13T20:33:05.389Z,82.96
2024-02-13T20:35:34.589Z,82.57
2024-02-13T20:38:06.222Z,83.15
2024-02-13T20:40:37.532Z,82.96
2024-02-13T20:43:11.357Z,83.07
2024-02-13T20:45:42.102Z,83.26
2024-02-13T20:48:13.542Z,83.54
2024-02-13T20:50:43.077Z,83.53
2024-02-13T20:53:14.131Z,83.54
2024-02-13T20:55:45.451Z,84.05
2024-02-13T20:58:15.785Z,84.66
2024-02-13T21:00:45.377Z,84.27
2024-02-13T21:03:20.471Z,84.59
2024-02-13T21:05:49.903Z,84.95
2024-02-13T21:08:19.965Z,84.40
2024-02-13T21:10:50.011Z,84.24
2024-02-13T21:13:19.649Z,84.78
2024-02-13T21:15:49.313Z,84.88
2024-02-13T21:18:41.384Z,85.93
2024-02-13T21:21:30.574Z,85.94
2024-02-13T21:23:58.676Z,84.96
2024-02-13T21:26:28.918Z,85.01
2024-02-13T21:28:59.585Z,83.89
2024-02-13T21:31:28.610Z,84.03
2024-02-13T21:33:59.687Z,83.88
2024-02-13T21:36:28.884Z,84.94
2024-02-13T21:38:58.210Z,85.07
2024-02-13T21:41:27.064Z,85.89
2024-02-13T21:43:56.989Z,85.16
2024-02-13T21:46:26.347Z,85.14
2024-02-13T21:48:56.145Z,85.83
2024-02-13T21:51:26.560Z,86.08
2024-02-13T21:53:56.953Z,86.87
2024-02-13T21:56:27.075Z,86.67
2024-02-13T21:59:00.385Z,86.11
2024-02-13T22:01:29.179Z,87.12
2024-02-13T22:03:58.824Z,86.51
2024-02-13T22:06:31.017Z,86.27
2024-02-13T22:09:00.048Z,86.50
2024-02-13T22:11:29.965Z,86.05
2024-02-13T22:13:58.909Z,86.67
2024-02-13T22:16:32.876Z,86.52
2024-02-13T22:19:04.287Z,86.96
2024-02-13T22:21:34.833Z,87.68
2024-02-13T22:24:05.424Z,86.95
2024-02-13T22:26:40.060Z,87.81
2024-02-13T22:29:09.475Z,87.93
2024-02-13T22:31:39.540Z,88.26
2024-02-13T22:34:08.935Z,88.72
2024-02-13T22:36:40.175Z,89.06
2024-02-13T22:39:10.604Z,88.47
2024-02-13T22:41:40.827Z,89.31
2024-02-13T22:44:12.047Z,88.43
2024-02-13T22:46:42.187Z,88.73
2024-02-13T22:49:11.747Z,88.88
2024-02-13T22:51:45.107Z,88.51
2024-02-13T22:54:16.317Z,88.06
2024-02-13T22:56:47.800Z,88.53
2024-02-13T22:59:17.171Z,88.81
2024-02-13T23:01:45.965Z,87.82
2024-02-13T23:04:15.098Z,87.86
2024-02-13T23:06:46.202Z,87.86
2024-02-13T23:09:18.425Z,87.56
2024-02-13T23:11:49.971Z,87.51
2024-02-13T23:14:19.639Z,87.46
2024-02-13T23:16:49.821Z,86.97
2024-02-13T23:19:19.729Z,87.31
2024-02-13T23:21:51.053Z,87.82
2024-02-13T23:24:19.812Z,87.47
2024-02-13T23:26:49.395Z,88.18
2024-02-13T23:29:20.559Z,87.97
2024-02-13T23:31:50.254Z,88.03
2024-02-13T23:34:19.860Z,88.37
2024-02-13T23:36:51.179Z,87.67
2024-02-13T23:39:20.124Z,87.59
2024-02-13T23:41:49.761Z,87.90
2024-02-13T23:44:19.234Z,87.49
2024-02-13T23:46:47.925Z,87.65
2024-02-13T23:49:16.871Z,87.94
2024-02-13T23:51:45.586Z,87.77
2024-02-13T23:54:18.194Z,87.03
2024-02-13T23:56:47.041Z,87.51
2024-02-13T23:59:16.682Z,86.69
